FW0886 Weather Reports


Display with metric or nautical units.
time (UTC)temp
F
wind
direction
speed
MPH
gust
MPH
rain 1hr
in
rain 24hr
in
rain mn
in
humidity
%
barometer
mb
20181117065215 36 0.0 0.0 0.00 0.00 0.00 88 1016.7
20181117064215 37 0.0 0.0 0.00 0.00 0.00 87 1016.7
20181117063217 37 0.0 0.0 0.00 0.00 0.00 87 1016.7
20181117062217 37 0.0 0.0 0.00 0.00 0.00 86 1016.7
20181117061217 37 0.0 0.0 0.00 0.00 0.00 86 1016.8
20181117060215 37 0.0 0.0 0.00 0.00 0.00 86 1016.8
20181117055217 37 0.0 0.0 0.00 0.00 0.00 84 1016.9
20181117054216 38 0.0 0.0 0.00 0.00 0.00 85 1016.9
20181117053217 38 0.0 0.0 0.00 0.00 0.00 83 1017.0
20181117052217 38 0.0 0.0 0.00 0.00 0.00 83 1017.1
20181117051217 39 0.0 0.0 0.00 0.00 0.00 81 1017.0
20181117050217 39 0.0 0.0 0.00 0.00 0.00 80 1017.2
20181117045217 40 0.0 0.0 0.00 0.00 0.00 78 1017.2
20181117044217 41 0.0 1.0 0.00 0.00 0.00 77 1017.2
20181117043217 42 0.0 1.0 0.00 0.00 0.00 74 1016.9
20181117042217 43 0.0 0.0 0.00 0.00 0.00 73 1016.5
20181117041217 44 143 0.0 1.0 0.00 0.00 0.00 72 1016.3
20181117040219 44 184 0.0 1.0 0.00 0.00 0.00 72 1016.4
20181117035217 43 165 0.0 4.0 0.00 0.00 0.00 74 1016.4
20181117034218 42 160 1.0 3.0 0.00 0.00 0.00 77 1016.3
20181117033216 42 132 0.0 1.0 0.00 0.00 0.00 76 1016.4
20181117032216 43 0.0 0.0 0.00 0.00 0.00 73 1016.6
20181117031218 44 0.0 0.0 0.00 0.00 0.00 72 1016.7
20181117030216 45 132 0.0 1.0 0.00 0.00 0.00 71 1016.6
20181117025217 45 132 0.0 1.0 0.00 0.00 0.00 72 1016.5
20181117024216 44 123 0.0 3.0 0.00 0.00 0.00 73 1016.3
20181117023217 44 156 0.0 1.0 0.00 0.00 0.00 72 1016.5
20181117022216 45 156 0.0 1.0 0.00 0.00 0.00 71 1016.6
20181117021216 44 156 0.0 2.0 0.00 0.00 0.00 72 1016.6
20181117020216 43 134 1.0 4.0 0.00 0.00 0.00 75 1016.4
20181117015217 43 0.0 0.0 0.00 0.00 0.00 76 1016.3
20181117014216 43 187 0.0 1.0 0.00 0.00 0.00 75 1016.3
20181117013217 43 0.0 0.0 0.00 0.00 0.00 74 1016.1
20181117012217 43 0.0 0.0 0.00 0.00 0.00 75 1016.2
20181117011217 43 0.0 0.0 0.00 0.00 0.00 75 1016.2
20181117010216 43 0.0 0.0 0.00 0.00 0.00 74 1016.2
20181117005217 44 0.0 0.0 0.00 0.00 0.00 72 1016.2
20181117004216 44 0.0 0.0 0.00 0.00 0.00 72 1016.3
20181117003217 44 0.0 0.0 0.00 0.00 0.00 71 1016.4
20181117002216 44 0.0 0.0 0.00 0.00 0.00 70 1016.3
20181117001216 45 0.0 0.0 0.00 0.00 0.00 69 1016.4
20181117000216 45 0.0 0.0 0.00 0.00 0.00 68 1016.4
20181116235217 46 0.0 0.0 0.00 0.00 0.00 66 1016.3
20181116234217 47 0.0 0.0 0.00 0.00 0.00 64 1016.3
20181116233217 48 0.0 0.0 0.00 0.00 0.00 61 1016.4
20181116232217 49 0.0 0.0 0.00 0.00 0.00 59 1016.6
20181116231217 51 0.0 0.0 0.00 0.00 0.00 57 1016.7
20181116230217 52 0.0 0.0 0.00 0.00 0.00 56 1016.6
20181116225217 53 0.0 0.0 0.00 0.00 0.00 53 1016.7
20181116224217 55 0.0 0.0 0.00 0.00 0.00 50 1016.8
20181116223218 55 223 2.0 4.0 0.00 0.00 0.00 49 1016.8
20181116222216 55 147 2.0 4.0 0.00 0.00 0.00 48 1016.7
20181116221217 56 120 2.0 4.0 0.00 0.00 0.00 48 1016.8
20181116220216 56 249 1.0 2.0 0.00 0.00 0.00 47 1016.9
20181116215217 56 152 3.0 7.0 0.00 0.00 0.00 47 1016.8
20181116214217 57 154 2.0 4.0 0.00 0.00 0.00 47 1016.9
20181116213217 57 216 1.0 3.0 0.00 0.00 0.00 48 1017.0
20181116212217 57 237 1.0 4.0 0.00 0.00 0.00 48 1017.0
20181116211217 56 211 4.0 8.0 0.00 0.00 0.00 47 1017.3
20181116210217 57 139 1.0 4.0 0.00 0.00 0.00 46 1017.3
20181116205216 57 171 2.0 5.0 0.00 0.00 0.00 45 1017.4
20181116204217 56 218 1.0 4.0 0.00 0.00 0.00 48 1017.5
20181116203217 56 201 2.0 5.0 0.00 0.00 0.00 50 1017.5
20181116202216 56 160 3.0 7.0 0.00 0.00 0.00 50 1017.6
20181116201216 56 161 3.0 7.0 0.00 0.00 0.00 50 1017.6
20181116200216 56 168 3.0 6.0 0.00 0.00 0.00 50 1017.8
20181116195216 56 182 4.0 6.0 0.00 0.00 0.00 50 1017.9
20181116194216 56 191 1.0 5.0 0.00 0.00 0.00 50 1018.2
20181116193216 56 51 2.0 3.0 0.00 0.00 0.00 50 1018.4
20181116192216 56 230 1.0 3.0 0.00 0.00 0.00 50 1018.6
20181116191216 56 243 2.0 4.0 0.00 0.00 0.00 51 1018.6
20181116190218 56 349 1.0 2.0 0.00 0.00 0.00 51 1018.8
20181116185216 56 329 0.0 3.0 0.00 0.00 0.00 51 1019.1
20181116184216 55 327 2.0 4.0 0.00 0.00 0.00 52 1019.3
20181116183216 55 282 0.0 3.0 0.00 0.00 0.00 53 1019.6
20181116182216 55 332 3.0 4.0 0.00 0.00 0.00 53 1019.6
20181116181217 55 317 2.0 7.0 0.00 0.00 0.00 55 1020.0
20181116180216 54 357 1.0 4.0 0.00 0.00 0.00 56 1020.2
20181116175216 54 342 2.0 4.0 0.00 0.00 0.00 55 1020.3
20181116174216 54 250 0.0 2.0 0.00 0.00 0.00 57 1020.3
20181116173216 53 347 1.0 3.0 0.00 0.00 0.00 58 1020.4
20181116172216 53 196 1.0 4.0 0.00 0.00 0.00 58 1020.5
20181116171216 52 309 0.0 3.0 0.00 0.00 0.00 63 1020.6
20181116170217 52 183 1.0 3.0 0.00 0.00 0.00 60 1020.8
20181116165216 52 209 1.0 3.0 0.00 0.00 0.00 61 1021.0
20181116164216 51 341 1.0 4.0 0.00 0.00 0.00 64 1021.0
20181116163216 51 265 1.0 4.0 0.00 0.00 0.00 62 1021.0
20181116162216 50 327 0.0 4.0 0.00 0.00 0.00 66 1020.9
20181116161216 50 225 2.0 4.0 0.00 0.00 0.00 65 1020.9
20181116160217 49 227 1.0 3.0 0.00 0.00 0.00 68 1020.9
20181116155216 47 330 0.0 2.0 0.00 0.00 0.00 71 1021.0
20181116154216 46 289 1.0 3.0 0.00 0.00 0.00 71 1021.0
20181116153216 46 237 1.0 3.0 0.00 0.00 0.00 72 1020.9
20181116152216 44 346 0.0 2.0 0.00 0.00 0.00 75 1021.1
20181116151216 43 318 1.0 4.0 0.00 0.00 0.00 77 1020.9
20181116150216 42 300 0.0 2.0 0.00 0.00 0.00 79 1021.0
20181116145216 41 247 1.0 2.0 0.00 0.00 0.00 80 1021.0
20181116144216 40 215 0.0 2.0 0.00 0.00 0.00 82 1020.9
20181116143215 39 241 1.0 3.0 0.00 0.00 0.00 84 1020.7
20181116142216 38 220 2.0 5.0 0.00 0.00 0.00 86 1020.6
20181116141216 36 221 2.0 5.0 0.00 0.00 0.00 92 1020.4
20181116140215 34 202 0.0 2.0 0.00 0.00 0.00 94 1020.1
20181116135216 32 244 0.0 1.0 0.00 0.00 0.00 93 1020.1
20181116134215 32 321 0.0 1.0 0.00 0.00 0.00 93 1020.0
20181116133215 31 0.0 0.0 0.00 0.00 0.00 92 1019.9
20181116132216 31 0.0 0.0 0.00 0.00 0.00 92 1019.7
20181116131216 32 321 0.0 1.0 0.00 0.00 0.00 92 1019.7
20181116130216 32 0.0 1.0 0.00 0.00 0.00 92 1019.6
20181116125215 32 321 0.0 1.0 0.00 0.00 0.00 92 1019.5
20181116124215 32 321 0.0 1.0 0.00 0.00 0.00 91 1019.5
20181116123215 32 0.0 0.0 0.00 0.00 0.00 91 1019.6
20181116122215 32 321 0.0 1.0 0.00 0.00 0.00 90 1019.6
20181116121215 32 321 0.0 1.0 0.00 0.00 0.00 90 1019.5
20181116120217 32 321 0.0 1.0 0.00 0.00 0.00 90 1019.5
20181116115215 33 321 0.0 1.0 0.00 0.00 0.00 90 1019.5
20181116114215 33 321 0.0 1.0 0.00 0.00 0.00 89 1019.3
20181116113215 33 0.0 0.0 0.00 0.00 0.00 90 1019.3
20181116112216 33 0.0 0.0 0.00 0.00 0.00 89 1019.4
20181116111215 34 0.0 1.0 0.00 0.00 0.00 88 1019.3
20181116110215 34 0.0 0.0 0.00 0.00 0.00 88 1019.0
20181116105216 34 0.0 0.0 0.00 0.00 0.00 87 1019.1
20181116104215 35 0.0 0.0 0.00 0.00 0.00 87 1018.9
20181116103215 35 0.0 0.0 0.00 0.00 0.00 87 1019.0
20181116102215 35 0.0 0.0 0.00 0.00 0.00 86 1019.1
20181116101215 35 321 0.0 1.0 0.00 0.00 0.00 86 1019.2
20181116100215 35 0.0 1.0 0.00 0.00 0.00 86 1019.1
20181116095215 35 321 0.0 1.0 0.00 0.00 0.00 85 1019.1
20181116094215 36 0.0 0.0 0.00 0.00 0.00 84 1019.2
20181116093215 36 0.0 0.0 0.00 0.00 0.00 84 1019.2
20181116092215 36 0.0 0.0 0.00 0.00 0.00 83 1019.2
20181116091215 37 321 0.0 1.0 0.00 0.00 0.00 82 1019.1
20181116090215 37 0.0 0.0 0.00 0.00 0.00 82 1019.1
20181116085215 37 322 1.0 4.0 0.00 0.00 0.00 83 1019.0
20181116084215 36 0.0 1.0 0.00 0.00 0.00 83 1018.9
20181116083215 36 0.0 0.0 0.00 0.00 0.00 82 1018.8
20181116082215 36 0.0 0.0 0.00 0.00 0.00 82 1018.9
20181116081215 37 0.0 0.0 0.00 0.00 0.00 81 1018.8
20181116080215 37 0.0 0.0 0.00 0.00 0.00 79 1018.7
20181116075215 38 360 0.0 1.0 0.00 0.00 0.00 79 1018.8
20181116074218 38 360 0.0 1.0 0.00 0.00 0.00 77 1018.7
20181116073217 39 360 0.0 1.0 0.00 0.00 0.00 76 1018.7
20181116072217 39 360 0.0 1.0 0.00 0.00 0.00 75 1018.6
20181116071217 40 360 0.0 2.0 0.00 0.00 0.00 74 1018.7
20181116070217 40 360 0.0 2.0 0.00 0.00 0.00 73 1018.6